Loch Ness — H3VY — position and weather

sailwx.info

Track history (hours):
 
Tides and Currents Weather Stations Pressure Air Temp Water Temp Dewpoint Dewpoint Depression Visibility Wind Speed Wind Dir Waves Ship Positions

Loch Ness

Last reported at 2018-Feb-02 22:31 UTC. Time now 2018-Feb-23 08:39 UTC.
Position N 22°18' E 121°55'.
Warning: this ship's position is 20 days out of date.

Length 200 m; draft 6.7 m.

Type: Cargo ship. MMSI: 374931000.

Date/timePositionNaut miles runAvg speedWind from/ knotsBaromVisibWave heightAir tempDewpointWater temp
2018-Feb-02 22:31N 22°18' E 121°55'111.3
2018-Feb-02 22:29N 22°19' E 121°55'711.7
2018-Feb-02 21:55N 22°25' E 121°57'1011.9
2018-Feb-02 21:07N 22°34' E 121°59'312.1
2018-Feb-02 20:53N 22°37' E 121°60'612.7
2018-Feb-02 20:24N 22°43' E 122°01'612.8
2018-Feb-02 19:56N 22°49' E 122°02'6511.9
2018-Feb-02 14:28N 23°53' E 122°13'3 6.3
2018-Feb-02 14:01N 23°54' E 122°16'3 6.4
2018-Feb-02 13:29N 23°51' E 122°15'4 8.4
2018-Feb-02 13:00N 23°55' E 122°14'611.8
2018-Feb-02 12:31N 24°01' E 122°16'611.7
2018-Feb-02 12:00N 24°06' E 122°17'510.6
2018-Feb-02 11:30N 24°12' E 122°17'3 6.4
2018-Feb-02 11:01N 24°09' E 122°17'510.6
2018-Feb-02 10:30N 24°13' E 122°19'611.8
2018-Feb-02 10:01N 24°19' E 122°21'611.8
2018-Feb-02 09:31N 24°25' E 122°22'611.7
2018-Feb-02 09:00N 24°31' E 122°23'611.3
2018-Feb-02 08:30N 24°36' E 122°24'612.3
2018-Feb-02 08:00N 24°42' E 122°25'612.2
2018-Feb-02 07:30N 24°48' E 122°26'612.1
2018-Feb-02 07:00N 24°54' E 122°28'611.7
2018-Feb-02 06:30N 24°60' E 122°29'611.0
2018-Feb-02 06:00N 25°05' E 122°30'510.5
2018-Feb-02 05:30N 25°11' E 122°31'5 9.6
2018-Feb-02 05:00N 25°15' E 122°32'  
2018-Jan-27 16:01N 31°05' E 122°31'510.6
2018-Jan-27 15:34N 31°06' E 122°26'113.4
2018-Jan-27 15:28N 31°06' E 122°24'613.4
2018-Jan-27 14:59N 31°07' E 122°17'714.4
2018-Jan-27 14:30N 31°11' E 122°10'713.5
2018-Jan-27 14:00N 31°14' E 122°03'712.9
2018-Jan-27 13:29N 31°15' E 121°55'712.4
2018-Jan-27 12:57N 31°17' E 121°48'  
2018-Jan-24 00:04N 31°06' E 121°27'1 3.8
2018-Jan-23 23:46N 31°07' E 121°28'2 5.1
2018-Jan-23 23:24N 31°09' E 121°27'5 5.6
2018-Jan-23 22:32N 31°13' E 121°30'  
Track history (hours):
 
Tides and Currents Weather Stations Pressure Air Temp Water Temp Dewpoint Dewpoint Depression Visibility Wind Speed Wind Dir Waves Ship Positions

Loch Ness

Last reported at 2018-Feb-02 22:31 UTC. Time now 2018-Feb-23 08:39 UTC.
Position N 22°18' E 121°55'.
Warning: this ship's position is 20 days out of date.

Length 200 m; draft 6.7 m.

Type: Cargo ship. MMSI: 374931000.

Date/timePositionNaut miles runAvg speedWind from/ knotsBaromVisibWave heightAir tempDewpointWater temp
2018-Feb-02 22:31N 22°18' E 121°55'111.3
2018-Feb-02 22:29N 22°19' E 121°55'711.7
2018-Feb-02 21:55N 22°25' E 121°57'1011.9
2018-Feb-02 21:07N 22°34' E 121°59'312.1
2018-Feb-02 20:53N 22°37' E 121°60'612.7
2018-Feb-02 20:24N 22°43' E 122°01'612.8
2018-Feb-02 19:56N 22°49' E 122°02'6511.9
2018-Feb-02 14:28N 23°53' E 122°13'3 6.3
2018-Feb-02 14:01N 23°54' E 122°16'3 6.4
2018-Feb-02 13:29N 23°51' E 122°15'4 8.4
2018-Feb-02 13:00N 23°55' E 122°14'611.8
2018-Feb-02 12:31N 24°01' E 122°16'611.7
2018-Feb-02 12:00N 24°06' E 122°17'510.6
2018-Feb-02 11:30N 24°12' E 122°17'3 6.4
2018-Feb-02 11:01N 24°09' E 122°17'510.6
2018-Feb-02 10:30N 24°13' E 122°19'611.8
2018-Feb-02 10:01N 24°19' E 122°21'611.8
2018-Feb-02 09:31N 24°25' E 122°22'611.7
2018-Feb-02 09:00N 24°31' E 122°23'611.3
2018-Feb-02 08:30N 24°36' E 122°24'612.3
2018-Feb-02 08:00N 24°42' E 122°25'612.2
2018-Feb-02 07:30N 24°48' E 122°26'612.1
2018-Feb-02 07:00N 24°54' E 122°28'611.7
2018-Feb-02 06:30N 24°60' E 122°29'611.0
2018-Feb-02 06:00N 25°05' E 122°30'510.5
2018-Feb-02 05:30N 25°11' E 122°31'5 9.6
2018-Feb-02 05:00N 25°15' E 122°32'  
2018-Jan-27 16:01N 31°05' E 122°31'510.6
2018-Jan-27 15:34N 31°06' E 122°26'113.4
2018-Jan-27 15:28N 31°06' E 122°24'613.4
2018-Jan-27 14:59N 31°07' E 122°17'714.4
2018-Jan-27 14:30N 31°11' E 122°10'713.5
2018-Jan-27 14:00N 31°14' E 122°03'712.9
2018-Jan-27 13:29N 31°15' E 121°55'712.4
2018-Jan-27 12:57N 31°17' E 121°48'  
2018-Jan-24 00:04N 31°06' E 121°27'1 3.8
2018-Jan-23 23:46N 31°07' E 121°28'2 5.1
2018-Jan-23 23:24N 31°09' E 121°27'5 5.6
2018-Jan-23 22:32N 31°13' E 121°30'  

Dump ship's entire track history